Time;durP1;ratioP1;P1;durP2;ratioP2;P2;SDS_P1;SDS_P2;PMS_P1;PMS_P2;Temp;Humidity;BMP_temperature;BMP_pressure;BME280_temperature;BME280_humidity;BME280_pressure;Samples;Min_cycle;Max_cycle;Signal;HPM_P1;HPM_P2
2022/02/18 00:02:11;;;;;;;19.77;4.32;;;5.60;99.90;;;;;;5011054;28;20041;-68
2022/02/18 00:04:37;;;;;;;20.70;2.15;;;5.60;99.90;;;;;;5030806;28;20041;-68
2022/02/18 00:07:04;;;;;;;16.27;1.92;;;5.70;99.90;;;;;;5013630;28;20029;-68
2022/02/18 00:09:29;;;;;;;15.90;2.38;;;5.60;99.90;;;;;;5012616;28;20041;-68
2022/02/18 00:11:55;;;;;;;16.10;3.08;;;5.70;99.90;;;;;;5031052;28;20037;-68
2022/02/18 00:14:21;;;;;;;14.70;1.90;;;5.70;99.90;;;;;;5030627;28;20033;-68
2022/02/18 00:16:47;;;;;;;16.63;1.92;;;5.70;99.90;;;;;;5030608;28;20042;-68
2022/02/18 00:19:13;;;;;;;13.15;1.50;;;5.70;99.90;;;;;;5013268;28;20069;-68
2022/02/18 00:21:38;;;;;;;19.10;1.80;;;5.60;99.90;;;;;;5030859;28;20410;-68
2022/02/18 00:24:05;;;;;;;18.67;2.88;;;5.70;99.90;;;;;;5031187;28;20068;-68
2022/02/18 00:26:30;;;;;;;17.17;3.00;;;5.70;99.90;;;;;;5027842;28;20044;-68
2022/02/18 00:28:56;;;;;;;16.08;1.88;;;5.70;99.90;;;;;;5011744;28;20053;-68
2022/02/18 00:31:22;;;;;;;10.95;2.28;;;5.70;99.90;;;;;;5029900;28;20033;-68
2022/02/18 00:33:47;;;;;;;13.10;1.40;;;5.60;99.90;;;;;;5012584;28;20069;-68
2022/02/18 00:36:13;;;;;;;10.68;1.10;;;5.60;99.90;;;;;;5029664;28;20086;-68
2022/02/18 00:38:40;;;;;;;18.77;2.13;;;5.60;99.90;;;;;;5012261;28;20056;-68
2022/02/18 00:41:08;;;;;;;15.07;1.73;;;5.60;99.90;;;;;;5010629;28;20045;-68
2022/02/18 00:43:34;;;;;;;15.77;1.55;;;5.60;99.90;;;;;;5028905;28;20412;-68
2022/02/18 00:46:00;;;;;;;11.77;1.35;;;5.50;99.90;;;;;;5012001;28;20042;-68
2022/02/18 00:48:25;;;;;;;13.68;1.50;;;5.50;99.90;;;;;;4991785;28;20127;-68
2022/02/18 00:50:51;;;;;;;16.42;1.52;;;5.50;99.90;;;;;;5010999;28;20511;-68
2022/02/18 00:53:17;;;;;;;20.08;1.92;;;5.50;99.90;;;;;;5030220;28;20041;-68
2022/02/18 00:55:43;;;;;;;16.73;1.60;;;5.50;99.90;;;;;;5029756;28;20475;-68
2022/02/18 00:58:09;;;;;;;18.48;3.13;;;5.50;99.90;;;;;;5012959;28;20050;-68
2022/02/18 01:00:34;;;;;;;10.60;1.40;;;5.50;99.90;;;;;;5010477;28;20124;-68
2022/02/18 01:03:00;;;;;;;11.88;1.70;;;5.40;99.90;;;;;;5022291;28;20057;-68
2022/02/18 01:05:26;;;;;;;9.52;1.60;;;5.50;99.90;;;;;;5012357;28;20053;-68
2022/02/18 01:07:51;;;;;;;18.02;2.42;;;5.40;99.90;;;;;;5011446;28;20554;-68
2022/02/18 01:10:17;;;;;;;11.88;2.83;;;5.40;99.90;;;;;;5028980;28;20052;-68
2022/02/18 01:12:42;;;;;;;11.52;1.40;;;5.30;99.90;;;;;;5010902;28;20084;-68
2022/02/18 01:15:10;;;;;;;13.48;1.35;;;5.30;99.90;;;;;;5028632;28;20033;-68
2022/02/18 01:17:35;;;;;;;16.38;2.22;;;5.40;99.90;;;;;;5027151;28;20460;-68
2022/02/18 01:20:02;;;;;;;15.80;1.83;;;5.40;99.90;;;;;;5011148;28;20135;-68
2022/02/18 01:22:28;;;;;;;14.30;2.42;;;5.30;99.90;;;;;;5009988;28;20076;-68
2022/02/18 01:24:54;;;;;;;12.23;2.75;;;5.20;99.90;;;;;;5029205;28;20072;-68
2022/02/18 01:27:19;;;;;;;10.10;1.77;;;5.30;99.90;;;;;;5012548;28;20704;-68
2022/02/18 01:29:45;;;;;;;12.95;1.50;;;5.30;99.90;;;;;;5011723;28;20049;-68
2022/02/18 01:32:12;;;;;;;18.73;1.63;;;5.30;99.90;;;;;;5010228;28;20080;-68
2022/02/18 01:34:39;;;;;;;13.68;1.73;;;5.20;99.90;;;;;;5028442;28;20030;-68
2022/02/18 01:37:05;;;;;;;17.77;2.22;;;5.30;99.90;;;;;;5011780;28;20061;-68
2022/02/18 01:39:31;;;;;;;18.00;1.55;;;5.20;99.90;;;;;;5011466;28;20041;-68
2022/02/18 01:41:57;;;;;;;14.00;2.40;;;5.20;99.90;;;;;;5011402;28;20037;-68
2022/02/18 01:44:38;;;;;;;14.85;1.60;;;5.20;99.90;;;;;;5029181;28;20587;-68
2022/02/18 01:47:06;;;;;;;10.20;1.20;;;5.10;99.90;;;;;;5028228;28;20794;-68
2022/02/18 01:49:31;;;;;;;12.38;1.98;;;5.10;99.90;;;;;;5004890;28;20063;-68
2022/02/18 01:51:58;;;;;;;12.30;2.00;;;5.10;99.90;;;;;;5028728;28;20037;-68
2022/02/18 01:54:23;;;;;;;20.02;2.58;;;5.00;99.90;;;;;;5012272;28;20060;-68
2022/02/18 01:56:49;;;;;;;9.35;1.65;;;5.00;99.90;;;;;;5029210;28;21574;-68
2022/02/18 01:59:15;;;;;;;15.02;1.77;;;5.00;99.90;;;;;;5011062;28;20044;-68
2022/02/18 02:01:41;;;;;;;20.25;2.22;;;4.90;99.90;;;;;;5028638;28;20038;-68
2022/02/18 02:04:06;;;;;;;15.98;1.35;;;4.90;99.90;;;;;;5010528;28;20053;-68
2022/02/18 02:06:33;;;;;;;10.32;1.60;;;4.90;99.90;;;;;;5010250;28;20447;-68
2022/02/18 02:08:59;;;;;;;14.32;1.65;;;5.00;99.90;;;;;;5011122;28;20041;-68
2022/02/18 02:11:24;;;;;;;10.63;1.38;;;4.90;99.90;;;;;;5028247;28;20041;-68
2022/02/18 02:13:50;;;;;;;12.57;2.25;;;4.90;99.90;;;;;;5028658;28;20037;-68
2022/02/18 02:16:16;;;;;;;12.55;2.38;;;5.00;99.90;;;;;;4994197;28;20037;-68
2022/02/18 02:18:44;;;;;;;14.95;1.88;;;4.90;99.90;;;;;;5010407;28;20483;-68
2022/02/18 02:21:13;;;;;;;16.30;2.17;;;5.00;99.90;;;;;;5010221;28;20946;-68
2022/02/18 02:23:39;;;;;;;19.20;1.98;;;5.00;99.90;;;;;;5010301;28;20044;-68
2022/02/18 02:26:10;;;;;;;13.52;2.20;;;5.00;99.90;;;;;;5032003;28;20121;-68
2022/02/18 02:28:36;;;;;;;10.57;1.10;;;5.00;99.90;;;;;;5015802;28;20049;-68
2022/02/18 02:31:01;;;;;;;13.52;2.10;;;5.00;99.90;;;;;;5032040;28;20042;-68
2022/02/18 02:33:27;;;;;;;16.23;1.52;;;5.00;99.90;;;;;;5015517;28;20037;-68
2022/02/18 02:35:54;;;;;;;10.45;0.88;;;5.00;99.90;;;;;;5014094;28;20045;-68
2022/02/18 02:38:20;;;;;;;8.52;0.90;;;5.00;99.90;;;;;;5012630;28;20063;-68
2022/02/18 02:40:46;;;;;;;8.98;1.40;;;5.00;99.90;;;;;;5014019;28;20126;-68
2022/02/18 02:43:11;;;;;;;10.68;1.20;;;5.00;99.90;;;;;;5013770;28;20125;-68
2022/02/18 02:45:37;;;;;;;10.95;1.67;;;5.10;99.90;;;;;;5031677;28;20547;-68
2022/02/18 02:48:03;;;;;;;13.63;1.10;;;5.10;99.90;;;;;;5013940;28;20041;-68
2022/02/18 02:50:29;;;;;;;10.02;1.33;;;5.10;99.90;;;;;;5014971;28;20045;-68
2022/02/18 02:52:54;;;;;;;11.20;1.23;;;5.10;99.90;;;;;;5027347;28;20041;-68
2022/02/18 02:55:20;;;;;;;8.32;1.50;;;5.10;99.90;;;;;;5014360;28;20037;-68
2022/02/18 02:57:46;;;;;;;9.40;1.23;;;5.10;99.90;;;;;;5029838;28;20033;-68
2022/02/18 03:00:13;;;;;;;9.00;1.65;;;5.10;99.90;;;;;;5015811;28;20100;-68
2022/02/18 03:02:39;;;;;;;5.07;0.70;;;5.10;99.90;;;;;;5030824;28;20045;-68
2022/02/18 03:05:06;;;;;;;9.88;0.90;;;5.10;99.90;;;;;;5031484;28;20037;-68
2022/02/18 03:07:32;;;;;;;9.07;0.90;;;5.10;99.90;;;;;;5029982;28;20653;-68
2022/02/18 03:09:57;;;;;;;7.53;0.90;;;5.10;99.90;;;;;;5030698;28;20038;-68
2022/02/18 03:12:23;;;;;;;8.27;1.13;;;5.10;99.90;;;;;;5031746;28;20083;-68
2022/02/18 03:14:49;;;;;;;7.13;0.95;;;5.20;99.90;;;;;;5013276;28;20041;-68
2022/02/18 03:17:15;;;;;;;8.35;0.80;;;5.20;99.90;;;;;;5011407;28;20503;-68
2022/02/18 03:19:41;;;;;;;9.95;1.45;;;5.20;99.90;;;;;;5012726;28;20107;-68
2022/02/18 03:22:06;;;;;;;11.95;1.60;;;5.20;99.90;;;;;;5030831;28;20033;-68
2022/02/18 03:24:33;;;;;;;10.85;0.60;;;5.20;99.90;;;;;;5030389;28;20045;-68
2022/02/18 03:26:58;;;;;;;9.07;1.45;;;5.20;99.90;;;;;;5030171;28;20495;-68
2022/02/18 03:29:25;;;;;;;7.00;0.98;;;5.30;99.90;;;;;;5030510;28;20033;-68
2022/02/18 03:31:51;;;;;;;11.50;1.27;;;5.30;99.90;;;;;;5011232;28;20500;-68
2022/02/18 03:34:16;;;;;;;5.75;0.98;;;5.20;99.90;;;;;;5012916;28;20051;-68
2022/02/18 03:36:42;;;;;;;5.50;0.73;;;5.30;99.90;;;;;;5029515;28;20480;-68
2022/02/18 03:39:09;;;;;;;9.77;0.93;;;5.30;99.90;;;;;;5013030;28;20052;-68
2022/02/18 03:41:35;;;;;;;8.07;1.50;;;5.30;99.90;;;;;;5032352;28;20051;-68
2022/02/18 03:44:01;;;;;;;8.40;1.45;;;5.30;99.90;;;;;;5014514;28;20045;-68
2022/02/18 03:46:26;;;;;;;7.75;1.00;;;5.40;99.90;;;;;;5010475;28;20042;-68
2022/02/18 03:48:52;;;;;;;10.98;1.05;;;5.30;99.90;;;;;;5032139;28;20823;-68
2022/02/18 03:51:18;;;;;;;16.13;1.13;;;5.40;99.90;;;;;;5014029;28;20156;-68
2022/02/18 03:53:45;;;;;;;14.80;2.20;;;5.40;99.90;;;;;;5013324;28;20041;-68
2022/02/18 03:56:11;;;;;;;9.77;1.77;;;5.40;99.90;;;;;;5014763;28;20120;-68
2022/02/18 03:58:36;;;;;;;8.38;1.48;;;5.40;99.90;;;;;;5031045;28;20121;-68
2022/02/18 04:01:02;;;;;;;11.38;1.15;;;5.40;99.90;;;;;;5031174;28;20080;-68
2022/02/18 04:03:28;;;;;;;10.35;1.60;;;5.40;99.90;;;;;;5013095;28;20061;-68
2022/02/18 04:05:53;;;;;;;9.35;1.08;;;5.50;99.90;;;;;;5031099;28;20064;-68
2022/02/18 04:08:19;;;;;;;11.70;1.35;;;5.40;99.90;;;;;;5013696;28;20076;-68
2022/02/18 04:10:44;;;;;;;9.43;1.60;;;5.40;99.90;;;;;;5013905;28;20044;-68
2022/02/18 04:13:10;;;;;;;19.67;1.27;;;5.40;99.90;;;;;;4998404;28;20049;-68
2022/02/18 04:15:35;;;;;;;14.93;1.67;;;5.50;99.90;;;;;;5031714;28;20411;-68
2022/02/18 04:18:01;;;;;;;12.52;1.38;;;5.50;99.90;;;;;;5014094;28;20466;-68
2022/02/18 04:20:28;;;;;;;13.40;1.65;;;5.50;99.90;;;;;;5013947;28;20045;-68
2022/02/18 04:22:53;;;;;;;12.45;1.67;;;5.50;99.90;;;;;;5031221;28;20072;-68
2022/02/18 04:25:19;;;;;;;13.82;1.95;;;5.50;99.90;;;;;;5012730;28;20072;-68
2022/02/18 04:27:55;;;;;;;14.00;2.50;;;5.60;99.90;;;;;;5014542;28;20568;-68
2022/02/18 04:30:22;;;;;;;11.45;2.03;;;5.60;99.90;;;;;;5028939;28;20400;-68
2022/02/18 04:32:48;;;;;;;20.60;2.40;;;5.70;99.90;;;;;;5031537;28;20480;-68
2022/02/18 04:35:14;;;;;;;20.55;2.38;;;5.60;99.90;;;;;;5013109;28;20040;-68
2022/02/18 04:37:40;;;;;;;13.95;1.70;;;5.70;99.90;;;;;;5013755;28;20392;-68
2022/02/18 04:40:07;;;;;;;8.90;1.88;;;5.70;99.90;;;;;;5030591;28;20092;-68
2022/02/18 04:42:32;;;;;;;19.83;2.42;;;5.70;99.90;;;;;;5013805;28;20045;-68
2022/02/18 04:44:58;;;;;;;20.63;2.38;;;5.70;99.90;;;;;;5013019;28;20046;-68
2022/02/18 04:47:23;;;;;;;11.95;2.00;;;5.70;99.90;;;;;;5012864;28;20080;-68
2022/02/18 04:49:49;;;;;;;14.70;2.92;;;5.70;99.90;;;;;;5029546;28;20484;-68
2022/02/18 04:52:15;;;;;;;20.40;2.40;;;5.70;99.90;;;;;;5012336;28;20615;-68
2022/02/18 04:54:41;;;;;;;18.30;2.53;;;5.70;99.90;;;;;;5028411;28;20029;-68
2022/02/18 04:57:07;;;;;;;15.02;2.63;;;5.80;99.90;;;;;;5011119;28;20516;-68
2022/02/18 04:59:33;;;;;;;14.80;2.42;;;5.80;99.90;;;;;;5027314;28;20041;-69
2022/02/18 05:01:59;;;;;;;11.88;2.30;;;5.80;99.90;;;;;;5030055;28;20033;-69
2022/02/18 05:04:24;;;;;;;12.13;2.05;;;5.80;99.90;;;;;;5029029;28;20441;-69
2022/02/18 05:06:50;;;;;;;14.70;2.63;;;5.80;99.90;;;;;;5010445;28;20088;-68
2022/02/18 05:09:16;;;;;;;19.25;2.88;;;5.80;99.90;;;;;;5028996;28;20046;-69
2022/02/18 05:11:41;;;;;;;18.70;2.80;;;5.80;99.90;;;;;;5012877;28;20043;-68
2022/02/18 05:14:07;;;;;;;22.67;3.63;;;5.90;99.90;;;;;;5010989;28;20045;-68
2022/02/18 05:16:33;;;;;;;15.68;3.05;;;5.90;99.90;;;;;;5029178;28;20057;-69
2022/02/18 05:18:58;;;;;;;15.00;3.03;;;5.90;99.90;;;;;;5028930;28;20064;-68
2022/02/18 05:21:25;;;;;;;22.75;3.50;;;5.90;99.90;;;;;;5029714;28;20042;-68
2022/02/18 05:23:50;;;;;;;21.05;3.70;;;5.90;99.90;;;;;;5029797;28;20136;-68
2022/02/18 05:26:17;;;;;;;22.15;2.67;;;6.00;99.90;;;;;;5027712;28;20133;-68
2022/02/18 05:28:43;;;;;;;19.63;3.08;;;5.90;99.90;;;;;;5029016;28;20042;-69
2022/02/18 05:31:08;;;;;;;19.40;3.05;;;5.90;99.90;;;;;;5023940;28;20041;-68
2022/02/18 05:33:34;;;;;;;31.73;3.80;;;6.00;99.90;;;;;;5029810;28;20127;-68
2022/02/18 05:36:00;;;;;;;18.48;3.10;;;5.90;99.90;;;;;;5029096;28;20122;-68
2022/02/18 05:38:26;;;;;;;24.67;3.60;;;6.00;99.90;;;;;;5029205;28;20040;-68
2022/02/18 05:40:52;;;;;;;22.25;4.18;;;6.00;99.90;;;;;;5028480;28;21880;-68
2022/02/18 05:43:17;;;;;;;18.25;3.53;;;5.90;99.90;;;;;;5029456;28;20041;-68
2022/02/18 05:45:43;;;;;;;21.30;3.50;;;6.00;99.90;;;;;;5011754;28;20365;-68
2022/02/18 05:48:09;;;;;;;19.75;3.40;;;6.00;99.90;;;;;;5010851;28;20041;-69
2022/02/18 05:50:34;;;;;;;20.55;3.08;;;6.00;99.90;;;;;;5028049;28;20784;-68
2022/02/18 05:53:00;;;;;;;19.80;3.22;;;6.00;99.90;;;;;;5028647;28;20403;-68
2022/02/18 05:55:26;;;;;;;19.75;4.25;;;6.00;99.90;;;;;;4994903;28;20044;-68
2022/02/18 05:57:51;;;;;;;17.98;3.28;;;6.10;99.90;;;;;;5011428;28;20152;-68
2022/02/18 06:00:17;;;;;;;21.23;3.58;;;6.00;99.90;;;;;;5008581;28;20502;-69
2022/02/18 06:02:43;;;;;;;19.60;3.53;;;6.00;99.90;;;;;;5026451;28;20052;-68
2022/02/18 06:05:10;;;;;;;24.90;3.63;;;6.00;99.90;;;;;;5009314;28;20120;-68
2022/02/18 06:07:36;;;;;;;23.13;3.63;;;6.00;99.90;;;;;;5027360;28;20045;-68
2022/02/18 06:10:02;;;;;;;18.50;3.70;;;6.00;99.90;;;;;;5008739;28;20534;-68
2022/02/18 06:12:28;;;;;;;22.52;3.30;;;6.00;99.90;;;;;;5009187;28;20048;-68
2022/02/18 06:14:53;;;;;;;19.30;3.83;;;6.00;99.90;;;;;;5027217;28;20555;-68
2022/02/18 06:17:20;;;;;;;24.00;4.93;;;6.00;99.90;;;;;;5028544;28;20037;-68
2022/02/18 06:19:46;;;;;;;25.63;3.78;;;6.00;99.90;;;;;;5009002;28;20053;-68
2022/02/18 06:22:12;;;;;;;19.63;3.20;;;6.00;99.90;;;;;;5008405;28;20038;-68
2022/02/18 06:24:38;;;;;;;25.35;4.63;;;5.90;99.90;;;;;;5007312;28;20072;-68
2022/02/18 06:27:04;;;;;;;26.55;4.70;;;6.00;99.90;;;;;;5011501;28;20049;-68
2022/02/18 06:29:30;;;;;;;24.98;4.72;;;6.00;99.90;;;;;;5006204;28;20037;-68
2022/02/18 06:31:57;;;;;;;21.60;4.05;;;6.00;99.90;;;;;;5009530;28;20160;-68
2022/02/18 06:34:23;;;;;;;21.45;5.25;;;6.00;99.90;;;;;;5026228;28;20259;-68
2022/02/18 06:36:51;;;;;;;27.75;4.65;;;5.90;99.90;;;;;;5009518;28;20037;-69
2022/02/18 06:39:21;;;;;;;20.83;5.75;;;5.90;99.90;;;;;;5025526;28;20357;-68
2022/02/18 06:41:49;;;;;;;22.50;5.75;;;6.00;99.90;;;;;;5025692;28;20057;-68
2022/02/18 06:44:15;;;;;;;23.02;6.13;;;6.00;99.90;;;;;;5027152;28;20072;-68
2022/02/18 06:46:41;;;;;;;19.58;5.03;;;6.00;99.90;;;;;;5009765;28;20125;-68
2022/02/18 06:49:07;;;;;;;30.40;6.97;;;6.00;99.90;;;;;;5009074;28;20526;-68
2022/02/18 06:51:34;;;;;;;27.58;6.22;;;6.10;99.90;;;;;;5010289;28;20046;-68
2022/02/18 06:53:59;;;;;;;26.05;6.88;;;6.10;99.90;;;;;;5027300;28;20103;-68
2022/02/18 06:56:25;;;;;;;27.48;7.65;;;6.10;99.90;;;;;;5007655;28;20159;-68
2022/02/18 06:58:52;;;;;;;30.45;7.07;;;6.10;99.90;;;;;;5006692;28;20046;-68
2022/02/18 07:01:18;;;;;;;27.60;7.65;;;6.20;99.90;;;;;;5007843;28;20516;-68
2022/02/18 07:03:44;;;;;;;27.17;6.72;;;6.20;99.90;;;;;;5025865;28;20041;-68
2022/02/18 07:06:09;;;;;;;28.42;6.70;;;6.20;99.90;;;;;;4992918;28;20048;-68
2022/02/18 07:08:35;;;;;;;26.88;6.93;;;6.20;99.90;;;;;;5007715;28;20396;-68
2022/02/18 07:11:01;;;;;;;22.83;6.95;;;6.20;99.90;;;;;;5009916;28;20404;-69
2022/02/18 07:13:26;;;;;;;31.77;6.97;;;6.20;99.90;;;;;;5012115;28;20073;-69
2022/02/18 07:15:52;;;;;;;31.90;7.28;;;6.30;99.90;;;;;;5029060;28;20033;-70
2022/02/18 07:18:18;;;;;;;32.20;7.45;;;6.20;99.90;;;;;;5012641;28;20045;-70
2022/02/18 07:20:45;;;;;;;29.45;7.28;;;6.40;99.90;;;;;;5029982;28;20041;-70
2022/02/18 07:23:11;;;;;;;29.33;6.78;;;6.30;99.90;;;;;;5013447;28;20053;-70
2022/02/18 07:25:37;;;;;;;39.40;8.35;;;6.40;99.90;;;;;;5030556;28;20703;-70
2022/02/18 07:28:03;;;;;;;34.13;7.32;;;6.40;99.90;;;;;;5012145;28;20041;-70
2022/02/18 07:30:28;;;;;;;35.15;6.05;;;6.40;99.90;;;;;;5031155;28;20381;-70
2022/02/18 07:32:54;;;;;;;25.25;4.95;;;6.40;99.90;;;;;;5030098;28;20524;-69
2022/02/18 07:35:20;;;;;;;32.65;6.72;;;6.50;99.90;;;;;;5014310;28;20038;-68
2022/02/18 07:37:49;;;;;;;29.92;6.28;;;6.50;99.90;;;;;;5026652;28;20041;-69
2022/02/18 07:40:17;;;;;;;37.65;5.97;;;6.50;99.90;;;;;;5010262;28;20066;-68
2022/02/18 07:42:43;;;;;;;30.08;5.85;;;6.50;99.90;;;;;;5029164;28;20033;-73
2022/02/18 07:45:12;;;;;;;37.85;6.60;;;6.60;99.90;;;;;;5028413;28;20037;-68
2022/02/18 07:47:38;;;;;;;34.88;5.95;;;6.60;99.90;;;;;;5030386;28;20048;-68
2022/02/18 07:50:05;;;;;;;37.90;6.72;;;6.60;99.90;;;;;;5027862;28;20034;-68
2022/02/18 07:52:31;;;;;;;39.80;7.55;;;6.60;99.90;;;;;;5012098;28;20128;-68
2022/02/18 07:54:57;;;;;;;40.63;6.72;;;6.60;99.90;;;;;;5012632;28;20128;-69
2022/02/18 07:57:24;;;;;;;32.08;5.60;;;6.60;99.90;;;;;;5010861;28;20098;-68
2022/02/18 07:59:50;;;;;;;32.55;6.22;;;6.60;99.90;;;;;;5006125;28;20033;-69
2022/02/18 08:02:16;;;;;;;33.38;5.18;;;6.60;99.90;;;;;;5025746;28;20151;-68
2022/02/18 08:04:42;;;;;;;27.52;5.55;;;6.60;99.90;;;;;;5029310;28;20490;-68
2022/02/18 08:07:07;;;;;;;21.92;4.13;;;6.60;99.90;;;;;;4992664;28;20039;-69
2022/02/18 08:09:33;;;;;;;32.50;5.40;;;6.60;99.90;;;;;;5029716;28;20572;-68
2022/02/18 08:11:59;;;;;;;31.50;5.38;;;6.70;99.90;;;;;;5009522;28;20042;-68
2022/02/18 08:14:25;;;;;;;29.75;5.18;;;6.60;99.90;;;;;;5011248;28;20484;-68
2022/02/18 08:16:51;;;;;;;30.52;5.30;;;6.60;99.90;;;;;;4993716;28;20046;-69
2022/02/18 08:19:20;;;;;;;27.85;4.85;;;6.60;99.90;;;;;;5008251;28;20527;-68
2022/02/18 08:21:47;;;;;;;31.73;5.13;;;6.70;99.90;;;;;;5008648;28;20076;-68
2022/02/18 08:24:18;;;;;;;37.13;5.80;;;6.70;99.90;;;;;;5023318;28;20088;-68
2022/02/18 08:26:48;;;;;;;24.27;4.38;;;6.70;99.90;;;;;;5027596;28;20508;-68
2022/02/18 08:29:15;;;;;;;28.88;4.32;;;6.70;99.90;;;;;;5008082;28;20127;-68
2022/02/18 08:31:42;;;;;;;25.48;5.63;;;6.70;99.90;;;;;;5020935;28;20034;-68
2022/02/18 08:34:08;;;;;;;25.42;5.90;;;6.70;99.90;;;;;;5006155;28;20037;-68
2022/02/18 08:36:35;;;;;;;28.40;5.45;;;6.70;99.90;;;;;;5009612;28;20045;-68
2022/02/18 08:39:05;;;;;;;23.70;4.53;;;6.70;99.90;;;;;;5023632;28;20794;-68
2022/02/18 08:41:34;;;;;;;23.77;4.25;;;6.70;99.90;;;;;;5008552;28;20037;-68
2022/02/18 08:44:00;;;;;;;25.55;5.43;;;6.80;99.90;;;;;;5006284;28;20518;-68
2022/02/18 08:46:27;;;;;;;21.75;3.90;;;6.80;99.90;;;;;;5008307;28;20083;-68
2022/02/18 08:48:53;;;;;;;24.00;3.95;;;6.80;99.90;;;;;;5010920;28;21184;-68
2022/02/18 08:51:19;;;;;;;19.08;3.88;;;6.80;99.90;;;;;;5023985;28;20094;-68
2022/02/18 08:53:45;;;;;;;21.90;4.22;;;6.90;99.90;;;;;;5025432;28;20029;-68
2022/02/18 08:56:11;;;;;;;16.75;3.65;;;6.80;99.90;;;;;;5007288;28;20076;-68
2022/02/18 08:58:37;;;;;;;16.25;4.30;;;6.90;99.90;;;;;;5009218;28;20125;-68
2022/02/18 09:01:03;;;;;;;17.95;3.38;;;6.90;99.90;;;;;;5027220;28;20053;-68
2022/02/18 09:03:29;;;;;;;22.15;4.05;;;6.90;99.90;;;;;;5010162;28;20048;-68
2022/02/18 09:05:56;;;;;;;13.68;4.03;;;7.00;99.90;;;;;;5006671;28;20575;-68
2022/02/18 09:08:24;;;;;;;14.73;3.45;;;7.00;99.90;;;;;;5010158;28;20041;-68
2022/02/18 09:10:52;;;;;;;17.10;3.88;;;7.00;99.90;;;;;;5007782;28;20058;-68
2022/02/18 09:13:20;;;;;;;11.57;3.38;;;7.00;99.90;;;;;;5008590;28;20049;-68
2022/02/18 09:15:46;;;;;;;17.10;4.43;;;7.10;99.90;;;;;;5026285;28;20478;-68
2022/02/18 09:18:12;;;;;;;15.80;4.13;;;7.10;99.90;;;;;;5007123;28;21807;-68
2022/02/18 09:20:38;;;;;;;15.05;3.20;;;7.10;99.90;;;;;;5006776;28;20136;-68
2022/02/18 09:23:05;;;;;;;9.00;3.03;;;7.20;99.90;;;;;;5024959;28;20124;-68
2022/02/18 09:25:31;;;;;;;16.77;3.67;;;7.20;99.90;;;;;;5006936;28;20041;-68
2022/02/18 09:27:57;;;;;;;10.50;3.47;;;7.20;99.90;;;;;;5009410;28;20484;-68
2022/02/18 09:30:22;;;;;;;12.85;3.58;;;7.30;99.90;;;;;;5008909;28;20037;-68
2022/02/18 09:32:48;;;;;;;11.95;3.28;;;7.30;99.90;;;;;;5026286;28;20683;-68
2022/02/18 09:35:15;;;;;;;12.20;3.25;;;7.40;99.90;;;;;;5008791;28;20124;-68
2022/02/18 09:37:41;;;;;;;10.55;2.92;;;7.40;99.90;;;;;;5025575;28;20076;-68
2022/02/18 09:40:08;;;;;;;12.25;3.47;;;7.50;99.90;;;;;;5008450;28;20180;-68
2022/02/18 09:42:38;;;;;;;15.18;4.28;;;7.60;99.90;;;;;;4990351;28;20095;-68
2022/02/18 09:45:04;;;;;;;8.20;3.30;;;7.70;99.90;;;;;;5005130;28;20066;-68
2022/02/18 09:47:34;;;;;;;11.50;3.88;;;7.80;99.90;;;;;;5025648;28;20041;-68
2022/02/18 09:50:02;;;;;;;10.00;3.20;;;7.80;99.90;;;;;;5007623;28;20607;-68
2022/02/18 09:52:28;;;;;;;8.35;2.92;;;7.90;99.90;;;;;;5008252;28;20049;-68
2022/02/18 09:54:53;;;;;;;18.45;4.30;;;7.90;99.90;;;;;;5024045;28;20048;-68
2022/02/18 09:57:20;;;;;;;8.27;2.97;;;8.00;99.90;;;;;;5025683;28;20048;-68
2022/02/18 09:59:48;;;;;;;13.85;3.53;;;8.10;99.90;;;;;;5026288;28;20380;-68
2022/02/18 10:02:18;;;;;;;13.35;3.70;;;8.10;99.90;;;;;;5005444;28;20132;-68
2022/02/18 10:04:44;;;;;;;12.48;2.95;;;8.20;99.90;;;;;;5010748;28;20640;-68
2022/02/18 10:07:09;;;;;;;7.95;3.13;;;8.30;99.90;;;;;;5023176;28;20052;-68
2022/02/18 10:09:39;;;;;;;10.18;2.92;;;8.40;99.90;;;;;;5008097;28;20048;-68
2022/02/18 10:12:05;;;;;;;9.00;3.40;;;8.40;99.90;;;;;;5006791;28;20160;-68
2022/02/18 10:14:57;;;;;;;12.80;3.83;;;8.50;99.90;;;;;;5008546;28;20057;-68
2022/02/18 10:17:25;;;;;;;11.40;3.88;;;8.60;99.90;;;;;;5007691;28;20097;-68
2022/02/18 10:19:52;;;;;;;11.05;3.58;;;8.60;99.90;;;;;;5008736;28;20057;-69
2022/02/18 10:22:26;;;;;;;11.05;3.30;;;8.70;99.90;;;;;;5004465;28;20476;-68
2022/02/18 10:24:55;;;;;;;9.90;3.22;;;8.80;99.90;;;;;;5007401;28;20054;-68
2022/02/18 10:27:23;;;;;;;7.68;3.78;;;8.90;99.90;;;;;;5009436;28;20140;-68
2022/02/18 10:29:58;;;;;;;8.65;3.45;;;8.90;99.90;;;;;;5024036;28;20455;-69
2022/02/18 10:32:24;;;;;;;11.50;3.00;;;9.00;99.90;;;;;;5017038;28;20037;-68
2022/02/18 10:34:58;;;;;;;8.98;3.58;;;9.00;99.90;;;;;;5026011;28;20476;-68
2022/02/18 10:37:27;;;;;;;7.90;3.20;;;9.20;99.90;;;;;;5002414;28;20406;-68
2022/02/18 10:40:10;;;;;;;11.32;3.70;;;9.20;99.90;;;;;;5005257;28;20045;-68
2022/02/18 10:42:37;;;;;;;8.23;2.90;;;9.30;99.90;;;;;;5024462;28;20607;-68
2022/02/18 10:45:11;;;;;;;10.18;3.55;;;9.30;99.90;;;;;;5024276;28;20080;-68
2022/02/18 10:47:37;;;;;;;8.35;3.53;;;9.30;99.90;;;;;;5029023;28;20373;-69
2022/02/18 10:50:13;;;;;;;13.23;3.88;;;9.30;99.90;;;;;;5009838;28;20041;-69
2022/02/18 10:52:38;;;;;;;8.73;2.95;;;9.40;99.90;;;;;;5028708;28;20068;-70
2022/02/18 10:55:09;;;;;;;14.10;3.72;;;9.40;99.90;;;;;;5010846;28;20034;-69
2022/02/18 10:57:35;;;;;;;11.25;3.38;;;9.40;99.90;;;;;;5012726;28;20040;-69
2022/02/18 11:00:14;;;;;;;7.00;3.20;;;9.50;99.90;;;;;;5029261;28;20514;-69
2022/02/18 11:02:50;;;;;;;12.13;3.58;;;9.50;99.90;;;;;;5028903;28;20112;-69
2022/02/18 11:05:24;;;;;;;13.85;3.55;;;9.50;99.90;;;;;;5012240;28;20120;-69
2022/02/18 11:07:50;;;;;;;8.68;3.65;;;9.60;99.90;;;;;;5010796;28;20041;-69
2022/02/18 11:10:35;;;;;;;9.80;3.67;;;9.60;99.90;;;;;;5028126;28;20117;-69
2022/02/18 11:13:01;;;;;;;8.82;3.42;;;9.60;99.90;;;;;;5028136;28;22374;-69
2022/02/18 11:15:28;;;;;;;10.23;3.97;;;9.70;99.90;;;;;;5028324;28;20124;-69
2022/02/18 11:17:55;;;;;;;6.15;3.47;;;9.70;99.90;;;;;;5012070;28;20041;-69
2022/02/18 11:20:23;;;;;;;10.30;3.75;;;9.80;99.90;;;;;;5010865;28;20049;-69
2022/02/18 11:22:54;;;;;;;7.43;2.92;;;9.80;99.90;;;;;;5028719;28;20037;-69
2022/02/18 11:25:21;;;;;;;7.07;3.40;;;9.80;99.90;;;;;;5027882;28;20045;-69
2022/02/18 11:27:47;;;;;;;7.90;3.10;;;9.90;99.90;;;;;;5010360;28;20041;-69
2022/02/18 11:30:13;;;;;;;5.30;2.90;;;9.90;99.90;;;;;;5028538;28;20132;-69
2022/02/18 11:32:54;;;;;;;6.15;3.00;;;9.90;99.90;;;;;;5028944;28;20120;-70
2022/02/18 11:35:53;;;;;;;5.45;2.42;;;9.90;99.90;;;;;;5010048;28;20057;-70
2022/02/18 11:38:37;;;;;;;4.13;2.40;;;9.90;99.90;;;;;;5010024;28;20057;-70
2022/02/18 11:41:24;;;;;;;6.53;3.03;;;10.00;99.90;;;;;;5009388;28;20037;-70
2022/02/18 11:43:50;;;;;;;5.88;2.80;;;10.00;99.90;;;;;;5010444;28;20057;-70
2022/02/18 11:46:24;;;;;;;6.43;2.35;;;10.10;99.90;;;;;;5028070;28;20037;-70
2022/02/18 11:48:50;;;;;;;6.38;2.60;;;10.10;99.90;;;;;;5006511;28;20049;-70
2022/02/18 11:51:21;;;;;;;3.63;1.90;;;10.20;99.90;;;;;;5028237;28;20029;-70
2022/02/18 11:53:52;;;;;;;6.20;2.30;;;10.30;99.90;;;;;;5021339;28;20061;-69
2022/02/18 11:56:38;;;;;;;4.35;2.22;;;10.30;99.90;;;;;;5028438;28;20561;-70
2022/02/18 11:59:04;;;;;;;2.20;1.40;;;10.30;99.90;;;;;;5025525;28;20112;-70
2022/02/18 12:01:48;;;;;;;3.00;1.20;;;10.40;99.90;;;;;;5010614;28;20045;-70
2022/02/18 12:04:21;;;;;;;1.90;1.70;;;10.50;99.90;;;;;;5009543;28;20049;-70
2022/02/18 12:07:35;;;;;;;3.67;1.52;;;10.50;99.90;;;;;;5011070;28;20041;-70
2022/02/18 12:10:04;;;;;;;4.13;1.30;;;10.60;99.90;;;;;;5014835;28;20049;-70
2022/02/18 12:12:32;;;;;;;2.00;1.30;;;10.60;99.90;;;;;;5009038;28;20555;-70
2022/02/18 12:15:10;;;;;;;5.18;1.38;;;10.70;99.90;;;;;;5026765;28;20049;-70
2022/02/18 12:17:39;;;;;;;4.35;1.45;;;10.60;99.90;;;;;;5027626;28;20042;-70
2022/02/18 12:20:15;;;;;;;3.95;1.30;;;10.70;99.90;;;;;;5011430;28;20171;-69
2022/02/18 12:22:41;;;;;;;3.38;1.45;;;10.70;99.90;;;;;;5026806;28;20045;-70
2022/02/18 12:25:23;;;;;;;2.03;0.95;;;10.80;99.90;;;;;;5007879;28;20411;-70
2022/02/18 12:27:51;;;;;;;3.10;1.10;;;10.70;99.90;;;;;;5024616;28;20061;-70
2022/02/18 12:30:22;;;;;;;1.27;0.90;;;10.80;99.90;;;;;;5028048;28;20041;-70
2022/02/18 12:32:50;;;;;;;1.23;0.75;;;10.90;99.90;;;;;;5027621;28;20510;-67
2022/02/18 12:35:18;;;;;;;6.13;2.13;;;10.90;99.90;;;;;;5009566;28;20045;-68
2022/02/18 12:37:44;;;;;;;2.58;0.95;;;10.90;99.90;;;;;;5027879;28;20034;-67
2022/02/18 12:40:17;;;;;;;1.70;0.82;;;11.00;99.90;;;;;;5026773;28;20033;-68
2022/02/18 12:42:43;;;;;;;3.45;0.70;;;11.10;99.90;;;;;;5009885;28;20087;-69
2022/02/18 12:45:11;;;;;;;1.10;0.60;;;11.10;99.90;;;;;;5007863;28;20045;-70
2022/02/18 12:47:39;;;;;;;2.20;0.50;;;11.10;99.90;;;;;;5025139;28;20080;-72
2022/02/18 12:50:13;;;;;;;1.73;0.70;;;11.10;99.90;;;;;;5027676;28;20033;-75